Time;durP1;ratioP1;P1;durP2;ratioP2;P2;SDS_P1;SDS_P2;PMS_P1;PMS_P2;Temp;Humidity;BMP_temperature;BMP_pressure;BME280_temperature;BME280_humidity;BME280_pressure;Samples;Min_cycle;Max_cycle;Signal;HPM_P1;HPM_P2
2023/01/09 00:00:39;;;;;;;40.97;23.13;;;3.80;99.90;;;;;;4971160;28;20031;-79
2023/01/09 00:03:04;;;;;;;38.75;22.27;;;3.80;99.90;;;;;;4970717;28;20072;-78
2023/01/09 00:05:30;;;;;;;41.75;23.13;;;3.80;99.90;;;;;;4970804;28;20400;-78
2023/01/09 00:07:55;;;;;;;43.15;24.95;;;3.80;99.90;;;;;;4970554;28;20471;-77
2023/01/09 00:10:21;;;;;;;44.05;23.70;;;3.80;99.90;;;;;;4970795;28;20057;-77
2023/01/09 00:12:47;;;;;;;42.80;22.95;;;3.80;99.90;;;;;;4970466;28;20505;-78
2023/01/09 00:15:12;;;;;;;42.17;24.50;;;3.80;99.90;;;;;;4953449;28;20030;-76
2023/01/09 00:17:38;;;;;;;41.20;23.88;;;3.80;99.90;;;;;;4970506;28;20063;-77
2023/01/09 00:20:06;;;;;;;43.13;25.42;;;3.80;99.90;;;;;;4953544;28;20476;-78
2023/01/09 00:22:31;;;;;;;44.00;25.65;;;3.80;99.90;;;;;;4973009;28;20030;-78
2023/01/09 00:24:57;;;;;;;38.40;22.17;;;3.90;99.90;;;;;;4956659;28;20035;-78
2023/01/09 00:27:23;;;;;;;40.88;22.95;;;3.80;99.90;;;;;;4956355;28;20041;-76
2023/01/09 00:29:48;;;;;;;37.10;21.48;;;3.80;99.90;;;;;;4956632;28;20030;-78
2023/01/09 00:32:14;;;;;;;41.08;22.60;;;3.80;99.90;;;;;;4973772;28;20031;-77
2023/01/09 00:34:42;;;;;;;36.80;21.27;;;3.90;99.90;;;;;;4956451;28;20580;-78
2023/01/09 00:37:10;;;;;;;32.45;19.60;;;3.90;99.90;;;;;;4973805;28;20021;-78
2023/01/09 00:39:40;;;;;;;40.03;22.90;;;3.90;99.90;;;;;;4956221;28;20081;-76
2023/01/09 00:42:09;;;;;;;32.95;20.50;;;3.90;99.90;;;;;;4973697;28;20042;-78
2023/01/09 00:44:40;;;;;;;34.72;20.25;;;3.90;99.90;;;;;;4973273;28;20057;-77
2023/01/09 00:47:09;;;;;;;32.75;20.08;;;3.90;99.90;;;;;;4956566;28;20076;-78
2023/01/09 00:49:36;;;;;;;34.92;20.90;;;3.90;99.90;;;;;;4956044;28;20037;-78
2023/01/09 00:52:04;;;;;;;34.88;20.92;;;3.80;99.90;;;;;;4973697;28;20026;-76
2023/01/09 00:54:30;;;;;;;36.58;21.23;;;3.80;99.90;;;;;;4955958;28;20054;-76
2023/01/09 00:56:57;;;;;;;35.28;19.73;;;3.80;99.90;;;;;;4973704;28;20476;-76
2023/01/09 00:59:23;;;;;;;33.60;18.42;;;3.70;99.90;;;;;;4955873;28;20092;-78
2023/01/09 01:01:48;;;;;;;37.20;22.35;;;3.70;99.90;;;;;;4956095;28;20058;-76
2023/01/09 01:09:42;;;;;;;39.58;22.35;;;3.50;99.90;;;;;;4973224;28;20476;-78
2023/01/09 01:12:08;;;;;;;41.78;24.05;;;3.50;99.90;;;;;;4973359;28;20019;-76
2023/01/09 01:14:35;;;;;;;37.58;20.80;;;3.40;99.90;;;;;;4972956;28;20030;-77
2023/01/09 01:17:01;;;;;;;33.20;20.23;;;3.30;99.90;;;;;;4955923;28;20031;-77
2023/01/09 01:19:26;;;;;;;38.92;22.08;;;3.30;99.90;;;;;;5056317;28;20034;-78
2023/01/09 01:21:52;;;;;;;41.08;22.20;;;3.20;99.90;;;;;;4973148;28;20049;-77
2023/01/09 01:24:18;;;;;;;35.53;21.75;;;3.20;99.90;;;;;;4955469;28;20106;-78
2023/01/09 01:26:45;;;;;;;38.45;21.85;;;3.10;99.90;;;;;;5056262;28;20129;-77
2023/01/09 01:29:10;;;;;;;41.08;22.25;;;3.10;99.90;;;;;;4955342;28;20114;-77
2023/01/09 01:31:36;;;;;;;40.40;22.88;;;3.00;99.90;;;;;;4955782;28;20536;-77
2023/01/09 01:34:02;;;;;;;41.03;23.95;;;3.00;99.90;;;;;;4971756;28;20041;-77
2023/01/09 01:36:27;;;;;;;45.08;24.33;;;2.90;99.90;;;;;;4955524;28;20031;-78
2023/01/09 01:38:53;;;;;;;46.90;25.10;;;2.90;99.90;;;;;;4955293;28;20034;-78
2023/01/09 01:41:28;;;;;;;47.30;25.77;;;2.90;99.90;;;;;;4955639;28;20109;-78
2023/01/09 01:44:44;;;;;;;43.28;23.33;;;2.80;99.90;;;;;;4955215;28;20043;-76
2023/01/09 01:47:10;;;;;;;45.40;25.00;;;2.80;99.90;;;;;;4955367;28;20476;-77
2023/01/09 01:49:36;;;;;;;44.80;25.58;;;2.70;99.90;;;;;;4955169;28;20019;-77
2023/01/09 01:52:01;;;;;;;39.70;23.67;;;2.70;99.90;;;;;;4972816;28;20488;-77
2023/01/09 01:54:28;;;;;;;43.83;24.92;;;2.70;99.90;;;;;;5055972;28;20035;-78
2023/01/09 01:56:58;;;;;;;46.42;26.17;;;2.70;99.90;;;;;;4972791;28;20022;-77
2023/01/09 01:59:48;;;;;;;48.83;25.60;;;2.70;99.90;;;;;;4954992;28;20019;-78
2023/01/09 02:02:19;;;;;;;45.97;26.70;;;2.70;99.90;;;;;;4972418;28;20027;-77
2023/01/09 02:04:46;;;;;;;46.80;25.38;;;2.60;99.90;;;;;;4955311;28;20080;-78
2023/01/09 02:07:12;;;;;;;49.85;26.83;;;2.60;99.90;;;;;;4955077;28;20018;-77
2023/01/09 02:09:40;;;;;;;48.92;27.30;;;2.60;99.90;;;;;;4971918;28;20031;-79
2023/01/09 02:12:24;;;;;;;41.72;22.88;;;2.60;99.90;;;;;;4972482;28;20056;-77
2023/01/09 02:15:04;;;;;;;42.80;23.98;;;2.50;99.90;;;;;;4955254;28;20019;-79
2023/01/09 02:17:41;;;;;;;39.85;22.48;;;2.50;99.90;;;;;;4954740;28;20023;-77
2023/01/09 02:20:21;;;;;;;48.83;25.10;;;2.40;99.90;;;;;;4954933;28;20515;-77
2023/01/09 02:22:59;;;;;;;42.28;24.17;;;2.40;99.90;;;;;;4971976;28;20023;-78
2023/01/09 02:25:43;;;;;;;46.30;26.08;;;2.40;99.90;;;;;;4972176;28;20038;-77
2023/01/09 02:28:27;;;;;;;44.15;25.25;;;2.30;99.90;;;;;;4954600;28;20049;-77
2023/01/09 02:31:21;;;;;;;41.63;24.08;;;2.30;99.90;;;;;;4954876;28;20046;-77
2023/01/09 02:34:05;;;;;;;44.08;25.38;;;2.30;99.90;;;;;;4953939;28;20031;-76
2023/01/09 02:36:50;;;;;;;43.10;26.48;;;2.20;99.90;;;;;;4954788;28;20384;-79
2023/01/09 02:39:30;;;;;;;46.72;26.90;;;2.20;99.90;;;;;;4971790;28;20031;-76
2023/01/09 02:42:07;;;;;;;49.42;30.20;;;2.20;99.90;;;;;;4972076;28;20412;-78
2023/01/09 02:44:35;;;;;;;51.78;27.50;;;2.10;99.90;;;;;;4954148;28;20050;-79
2023/01/09 02:47:22;;;;;;;48.25;27.33;;;2.10;99.90;;;;;;4954600;28;20068;-77
2023/01/09 02:49:55;;;;;;;47.17;26.95;;;2.10;99.90;;;;;;4954687;28;20092;-77
2023/01/09 02:52:26;;;;;;;47.25;26.35;;;2.10;99.90;;;;;;4954275;28;20050;-78
2023/01/09 02:55:31;;;;;;;50.80;27.33;;;2.00;99.90;;;;;;4954427;28;20038;-78
2023/01/09 02:58:06;;;;;;;44.55;25.58;;;2.00;99.90;;;;;;4953594;28;20073;-78
2023/01/09 03:00:50;;;;;;;49.45;27.05;;;2.00;99.90;;;;;;4971922;28;20025;-77
2023/01/09 03:03:34;;;;;;;46.55;27.65;;;1.90;99.90;;;;;;4954057;28;20114;-77
2023/01/09 03:06:29;;;;;;;50.63;26.98;;;1.90;99.90;;;;;;4954352;28;20030;-76
2023/01/09 03:09:01;;;;;;;50.08;26.65;;;1.90;99.90;;;;;;4954154;28;20497;-77
2023/01/09 03:11:33;;;;;;;47.95;26.92;;;1.80;99.90;;;;;;4953998;28;20047;-76
2023/01/09 03:14:08;;;;;;;42.38;23.88;;;1.80;99.90;;;;;;4970958;28;20545;-78
2023/01/09 03:16:37;;;;;;;43.13;24.92;;;1.70;99.90;;;;;;4971505;28;20484;-77
2023/01/09 03:19:07;;;;;;;43.20;24.75;;;1.70;99.90;;;;;;4971226;28;20023;-78
2023/01/09 03:21:33;;;;;;;46.72;25.88;;;1.60;99.90;;;;;;4954147;28;20484;-78
2023/01/09 03:24:01;;;;;;;52.70;27.10;;;1.60;99.90;;;;;;4971173;28;20027;-77
2023/01/09 03:26:28;;;;;;;42.22;26.27;;;1.50;99.90;;;;;;4954278;28;20027;-78
2023/01/09 03:28:54;;;;;;;47.05;25.55;;;1.50;99.90;;;;;;4972888;28;20544;-77
2023/01/09 03:31:20;;;;;;;42.05;24.50;;;1.40;99.90;;;;;;4973396;28;20422;-78
2023/01/09 03:33:46;;;;;;;47.30;25.90;;;1.40;99.90;;;;;;4972887;28;20023;-77
2023/01/09 03:36:13;;;;;;;41.15;24.58;;;1.40;99.90;;;;;;4973290;28;20031;-78
2023/01/09 03:38:39;;;;;;;43.22;24.70;;;1.40;99.90;;;;;;4990363;28;20030;-77
2023/01/09 03:41:06;;;;;;;43.88;25.42;;;1.30;99.90;;;;;;4973228;28;20018;-76
2023/01/09 03:43:32;;;;;;;42.03;24.73;;;1.30;99.90;;;;;;4972961;28;20026;-76
2023/01/09 03:45:58;;;;;;;42.08;24.05;;;1.30;99.90;;;;;;4973104;28;20567;-78
2023/01/09 03:48:24;;;;;;;45.38;25.65;;;1.30;99.90;;;;;;4990218;28;20030;-76
2023/01/09 03:50:53;;;;;;;44.30;26.67;;;1.40;99.90;;;;;;4973123;28;20015;-78
2023/01/09 03:53:23;;;;;;;43.20;24.55;;;1.30;99.90;;;;;;4990184;28;20027;-77
2023/01/09 03:55:51;;;;;;;46.08;25.75;;;1.30;99.90;;;;;;4973451;28;20022;-78
2023/01/09 03:58:18;;;;;;;50.00;26.65;;;1.30;99.90;;;;;;5003564;28;20470;-76
2023/01/09 04:00:47;;;;;;;47.65;24.48;;;1.30;99.90;;;;;;4993788;28;20131;-76
2023/01/09 04:03:14;;;;;;;45.20;25.75;;;1.30;99.90;;;;;;5029081;28;20434;-76
2023/01/09 04:05:40;;;;;;;41.33;24.77;;;1.30;99.90;;;;;;4974333;28;20034;-77
2023/01/09 04:08:06;;;;;;;42.85;23.83;;;1.40;99.90;;;;;;4956744;28;20023;-78
2023/01/09 04:10:32;;;;;;;42.35;24.13;;;1.40;99.90;;;;;;4953531;28;20052;-76
2023/01/09 04:12:58;;;;;;;49.65;25.73;;;1.40;99.90;;;;;;4953425;28;20030;-76
2023/01/09 04:15:24;;;;;;;50.00;27.38;;;1.30;99.90;;;;;;4953652;28;20027;-77
2023/01/09 04:17:49;;;;;;;44.50;26.73;;;1.30;99.90;;;;;;4954514;28;20015;-78
2023/01/09 04:20:15;;;;;;;51.40;27.55;;;1.30;99.90;;;;;;4953662;29;20027;-78
2023/01/09 04:22:41;;;;;;;45.47;26.13;;;1.30;99.90;;;;;;4954511;28;20023;-77
2023/01/09 04:25:07;;;;;;;48.22;26.73;;;1.20;99.90;;;;;;4954679;28;20041;-78
2023/01/09 04:27:32;;;;;;;46.60;26.00;;;1.20;99.90;;;;;;4954483;28;20393;-78
2023/01/09 04:29:58;;;;;;;51.92;29.17;;;1.30;99.90;;;;;;4954723;28;20023;-77
2023/01/09 04:32:26;;;;;;;48.08;27.38;;;1.30;99.90;;;;;;4953073;28;20019;-76
2023/01/09 04:34:52;;;;;;;51.70;26.35;;;1.30;99.90;;;;;;4953336;28;20481;-76
2023/01/09 04:37:18;;;;;;;44.90;26.42;;;1.30;99.90;;;;;;4953037;28;20039;-78
2023/01/09 04:39:43;;;;;;;49.22;27.80;;;1.40;99.90;;;;;;4953374;29;20428;-78
2023/01/09 04:42:10;;;;;;;46.80;26.02;;;1.40;99.90;;;;;;4954560;28;20019;-78
2023/01/09 04:44:36;;;;;;;44.20;23.17;;;1.40;99.90;;;;;;4954236;28;20062;-78
2023/01/09 04:47:02;;;;;;;42.67;23.08;;;1.40;99.90;;;;;;4954478;28;20460;-78
2023/01/09 04:49:27;;;;;;;44.50;24.20;;;1.30;99.90;;;;;;4954081;28;20035;-77
2023/01/09 04:51:53;;;;;;;42.28;24.35;;;1.30;99.90;;;;;;4953026;28;20039;-76
2023/01/09 04:54:19;;;;;;;46.85;26.70;;;1.30;99.90;;;;;;4952914;28;20031;-76
2023/01/09 04:56:44;;;;;;;51.28;28.27;;;1.30;99.90;;;;;;4954466;28;20077;-78
2023/01/09 04:59:10;;;;;;;45.30;26.92;;;1.30;99.90;;;;;;4952616;28;20019;-77
2023/01/09 05:01:36;;;;;;;48.17;28.05;;;1.30;99.90;;;;;;4953053;28;20023;-78
2023/01/09 05:04:02;;;;;;;49.30;26.40;;;1.30;99.90;;;;;;4953915;28;20024;-78
2023/01/09 05:06:28;;;;;;;45.45;25.00;;;1.20;99.90;;;;;;4954169;28;20040;-76
2023/01/09 05:08:55;;;;;;;43.03;25.73;;;1.20;99.90;;;;;;4952737;28;20027;-79
2023/01/09 05:11:21;;;;;;;36.70;21.98;;;1.30;99.90;;;;;;4953080;28;20050;-77
2023/01/09 05:13:47;;;;;;;39.85;22.85;;;1.30;99.90;;;;;;4952491;28;20120;-76
2023/01/09 05:16:13;;;;;;;40.83;22.83;;;1.30;99.90;;;;;;4954039;28;20495;-77
2023/01/09 05:18:38;;;;;;;43.55;24.27;;;1.30;99.90;;;;;;4952287;28;20027;-77
2023/01/09 05:21:04;;;;;;;40.78;23.88;;;1.30;99.90;;;;;;4952854;28;20031;-77
2023/01/09 05:23:29;;;;;;;41.13;23.38;;;1.40;99.90;;;;;;4952407;28;20024;-76
2023/01/09 05:25:55;;;;;;;41.15;22.95;;;1.40;99.90;;;;;;4952753;28;20126;-76
2023/01/09 05:28:20;;;;;;;44.05;24.08;;;1.40;99.90;;;;;;4952231;28;20030;-78
2023/01/09 05:30:47;;;;;;;38.05;22.77;;;1.50;99.90;;;;;;4953821;28;20043;-78
2023/01/09 05:33:12;;;;;;;42.17;24.33;;;1.50;99.90;;;;;;4953448;28;20033;-78
2023/01/09 05:35:38;;;;;;;38.35;23.02;;;1.50;99.90;;;;;;4953811;28;20419;-76
2023/01/09 05:38:03;;;;;;;46.08;24.88;;;1.60;99.90;;;;;;4952142;28;20031;-79
2023/01/09 05:40:29;;;;;;;42.67;23.58;;;1.60;99.90;;;;;;4952419;28;20027;-78
2023/01/09 05:42:55;;;;;;;42.65;25.67;;;1.70;99.90;;;;;;4953379;28;20129;-79
2023/01/09 05:45:20;;;;;;;36.17;22.33;;;1.70;99.90;;;;;;4952344;28;20124;-76
2023/01/09 05:47:46;;;;;;;38.65;21.27;;;1.80;99.90;;;;;;4951955;28;20039;-79
2023/01/09 05:50:12;;;;;;;35.88;21.88;;;1.80;99.90;;;;;;4952176;29;20024;-79
2023/01/09 05:52:38;;;;;;;33.55;19.92;;;1.90;99.90;;;;;;4953080;28;20027;-76
2023/01/09 05:55:05;;;;;;;35.00;21.15;;;1.90;99.90;;;;;;4952280;28;20024;-77
2023/01/09 05:57:31;;;;;;;38.65;21.92;;;2.10;99.90;;;;;;4951958;28;20435;-78
2023/01/09 05:59:56;;;;;;;34.03;21.00;;;2.10;99.90;;;;;;4953502;28;20019;-78
2023/01/09 06:02:22;;;;;;;37.33;21.08;;;2.10;99.90;;;;;;4951662;28;20023;-76
2023/01/09 06:04:47;;;;;;;39.90;21.92;;;2.10;99.90;;;;;;4953336;28;20035;-78
2023/01/09 06:07:13;;;;;;;31.83;19.00;;;2.20;99.90;;;;;;4952015;28;20033;-76
2023/01/09 06:09:39;;;;;;;38.42;22.13;;;2.20;99.90;;;;;;4953655;28;20591;-76
2023/01/09 06:12:04;;;;;;;33.17;20.38;;;2.20;99.90;;;;;;5055802;28;20026;-76
2023/01/09 06:14:30;;;;;;;36.22;20.15;;;2.30;99.90;;;;;;4956427;28;20026;-76
2023/01/09 06:16:56;;;;;;;34.78;19.15;;;2.30;99.90;;;;;;4973333;28;20450;-75
2023/01/09 06:19:21;;;;;;;34.38;20.80;;;2.40;99.90;;;;;;4972264;28;20477;-76
2023/01/09 06:21:47;;;;;;;37.25;21.17;;;2.40;99.90;;;;;;4981406;28;20042;-76
2023/01/09 06:24:12;;;;;;;36.17;21.15;;;2.40;99.90;;;;;;5053949;28;20099;-76
2023/01/09 06:26:38;;;;;;;37.22;19.55;;;2.50;99.90;;;;;;5058454;28;20030;-77
2023/01/09 06:29:04;;;;;;;34.08;18.10;;;2.50;99.90;;;;;;5058438;28;20112;-77
2023/01/09 06:31:29;;;;;;;31.77;18.63;;;2.50;99.90;;;;;;5045995;28;20020;-77
2023/01/09 06:33:55;;;;;;;30.65;18.10;;;2.60;99.90;;;;;;5074375;28;20032;-76
2023/01/09 06:36:21;;;;;;;32.28;19.25;;;2.70;99.90;;;;;;5075468;28;20040;-76
2023/01/09 06:38:46;;;;;;;23.60;16.25;;;2.70;99.90;;;;;;5093486;28;20028;-76
2023/01/09 06:41:12;;;;;;;27.08;16.25;;;2.80;99.90;;;;;;5034084;28;20042;-78
2023/01/09 06:43:38;;;;;;;29.67;17.92;;;2.90;99.90;;;;;;4991146;28;20062;-76
2023/01/09 06:46:07;;;;;;;27.70;16.55;;;3.00;99.90;;;;;;4973462;28;20073;-76
2023/01/09 06:48:32;;;;;;;34.60;19.40;;;3.10;99.90;;;;;;4990733;28;20026;-77
2023/01/09 06:50:58;;;;;;;35.58;20.23;;;3.00;99.90;;;;;;4973634;28;20395;-77
2023/01/09 06:53:24;;;;;;;29.67;18.90;;;3.00;99.90;;;;;;4973742;28;20054;-77
2023/01/09 06:55:50;;;;;;;39.65;21.00;;;3.00;99.90;;;;;;4973693;28;20053;-77
2023/01/09 06:58:16;;;;;;;37.92;22.63;;;2.90;99.90;;;;;;4977826;28;20487;-77
2023/01/09 07:00:41;;;;;;;35.35;20.67;;;2.90;99.90;;;;;;5042322;28;20092;-78
2023/01/09 07:03:08;;;;;;;33.92;19.17;;;2.90;99.90;;;;;;5003243;28;20030;-77
2023/01/09 07:05:39;;;;;;;30.05;18.75;;;2.90;99.90;;;;;;5009113;28;20087;-77
2023/01/09 07:08:05;;;;;;;32.30;18.63;;;3.00;99.90;;;;;;5007754;28;20026;-77
2023/01/09 07:10:30;;;;;;;30.10;19.50;;;3.10;99.90;;;;;;4990603;28;20050;-77
2023/01/09 07:12:56;;;;;;;31.42;18.55;;;3.20;99.90;;;;;;4990790;28;20030;-77
2023/01/09 07:15:21;;;;;;;33.05;19.25;;;3.30;99.90;;;;;;4990823;28;20101;-77
2023/01/09 07:17:49;;;;;;;30.90;18.80;;;3.30;99.90;;;;;;4973343;28;20030;-77
2023/01/09 07:20:16;;;;;;;32.33;18.27;;;3.30;99.90;;;;;;4990727;28;20018;-78
2023/01/09 07:22:42;;;;;;;27.38;16.35;;;3.40;99.90;;;;;;4973490;28;20026;-78
2023/01/09 07:25:08;;;;;;;27.58;16.42;;;3.50;99.90;;;;;;4990818;28;20049;-78
2023/01/09 07:27:33;;;;;;;21.73;14.10;;;3.60;99.90;;;;;;4973410;28;20027;-78
2023/01/09 07:29:59;;;;;;;24.42;15.23;;;3.70;99.90;;;;;;4990392;28;20022;-78
2023/01/09 07:32:24;;;;;;;25.33;16.80;;;3.80;99.90;;;;;;4975684;28;20023;-78
2023/01/09 07:34:50;;;;;;;22.15;14.43;;;3.90;99.90;;;;;;4976403;28;20390;-78
2023/01/09 07:37:16;;;;;;;22.15;14.00;;;4.00;99.90;;;;;;4976383;28;20030;-78
2023/01/09 07:39:42;;;;;;;23.50;15.10;;;4.10;99.90;;;;;;4993761;28;20361;-78
2023/01/09 07:42:07;;;;;;;22.42;13.50;;;4.10;99.90;;;;;;4976141;28;20117;-78
2023/01/09 07:44:33;;;;;;;20.15;12.38;;;4.20;99.90;;;;;;4976430;28;20109;-78
2023/01/09 07:46:59;;;;;;;26.17;14.38;;;4.20;99.90;;;;;;4976134;28;20507;-78
2023/01/09 07:49:24;;;;;;;22.05;14.35;;;4.30;99.90;;;;;;4993696;28;20495;-79
2023/01/09 07:51:50;;;;;;;22.75;13.02;;;4.30;99.90;;;;;;4976228;28;20060;-78
2023/01/09 07:54:15;;;;;;;19.77;14.80;;;4.30;99.90;;;;;;4976190;28;20105;-78
2023/01/09 07:56:41;;;;;;;22.45;13.43;;;4.40;99.90;;;;;;4976076;28;20464;-78
2023/01/09 07:59:07;;;;;;;24.80;14.90;;;4.40;99.90;;;;;;4975900;28;20023;-78
2023/01/09 08:01:32;;;;;;;21.80;13.60;;;4.40;99.90;;;;;;4979766;28;20027;-78
2023/01/09 08:03:58;;;;;;;19.80;12.60;;;4.50;99.90;;;;;;5008131;28;20456;-78
2023/01/09 08:06:24;;;;;;;19.95;12.98;;;4.50;99.90;;;;;;4974312;28;20031;-78
2023/01/09 08:08:49;;;;;;;18.05;12.15;;;4.50;99.90;;;;;;4974076;28;20019;-78
2023/01/09 08:11:15;;;;;;;21.80;13.77;;;4.60;99.90;;;;;;4957051;28;20054;-77
2023/01/09 08:13:41;;;;;;;18.83;11.93;;;4.60;99.90;;;;;;4956598;28;20476;-79
2023/01/09 08:16:06;;;;;;;22.00;12.55;;;4.70;99.90;;;;;;4957069;28;20030;-78
2023/01/09 08:18:32;;;;;;;22.15;12.63;;;4.70;99.90;;;;;;4973805;28;20084;-78
2023/01/09 08:20:57;;;;;;;21.42;12.98;;;4.70;99.90;;;;;;4988254;28;20061;-78
2023/01/09 08:23:23;;;;;;;22.30;13.73;;;4.80;99.90;;;;;;5045814;28;20494;-79
2023/01/09 08:25:48;;;;;;;24.13;15.52;;;4.80;99.90;;;;;;4993089;28;20411;-78
2023/01/09 08:28:14;;;;;;;24.48;14.15;;;4.80;99.90;;;;;;4999606;28;20027;-78
2023/01/09 08:30:40;;;;;;;21.90;12.65;;;4.90;99.90;;;;;;4954662;28;20033;-79
2023/01/09 08:33:06;;;;;;;20.65;12.35;;;4.90;99.90;;;;;;4973625;28;20026;-78
2023/01/09 08:35:32;;;;;;;21.42;13.60;;;5.00;99.90;;;;;;4955592;28;20503;-77
2023/01/09 08:37:57;;;;;;;18.38;11.60;;;5.00;99.90;;;;;;4956506;28;20062;-78
2023/01/09 08:40:23;;;;;;;20.17;12.93;;;5.10;99.90;;;;;;4956823;28;20023;-78
2023/01/09 08:48:17;;;;;;;16.67;11.52;;;5.20;99.90;;;;;;4974072;28;20089;-79
2023/01/09 08:50:43;;;;;;;19.80;12.68;;;5.30;99.90;;;;;;4957509;28;20027;-79
2023/01/09 08:53:09;;;;;;;21.63;13.88;;;5.40;99.90;;;;;;5033677;28;20056;-79
2023/01/09 08:55:35;;;;;;;23.85;14.10;;;5.40;99.90;;;;;;4991928;28;20479;-78
2023/01/09 08:58:01;;;;;;;21.88;14.50;;;5.40;99.90;;;;;;4991980;28;20023;-79
2023/01/09 09:00:27;;;;;;;20.63;13.52;;;5.50;99.90;;;;;;5060537;28;20037;-79
2023/01/09 09:02:58;;;;;;;22.77;12.75;;;5.50;99.90;;;;;;5060151;28;20030;-82
2023/01/09 09:05:24;;;;;;;18.45;11.57;;;5.60;99.90;;;;;;5058794;28;20133;-81
2023/01/09 09:07:53;;;;;;;15.43;11.10;;;5.60;99.90;;;;;;5055623;28;20049;-77
2023/01/09 09:10:20;;;;;;;17.98;10.98;;;5.70;99.90;;;;;;5059258;28;20050;-77
2023/01/09 09:12:51;;;;;;;15.98;11.00;;;5.80;99.90;;;;;;5059262;28;20030;-77
2023/01/09 09:15:23;;;;;;;14.80;10.18;;;5.80;99.90;;;;;;5059552;28;20023;-77
2023/01/09 09:18:00;;;;;;;16.00;10.43;;;5.90;99.90;;;;;;5059122;28;20114;-77
2023/01/09 09:20:29;;;;;;;12.57;9.20;;;6.00;99.90;;;;;;5008373;28;20057;-78
2023/01/09 09:22:54;;;;;;;12.88;8.25;;;6.10;99.90;;;;;;4991053;28;20027;-77
2023/01/09 09:25:21;;;;;;;13.60;8.70;;;6.20;99.90;;;;;;5059663;28;20175;-79
2023/01/09 09:27:47;;;;;;;10.85;8.05;;;6.30;99.90;;;;;;5058832;28;20034;-82
2023/01/09 09:30:15;;;;;;;12.80;8.27;;;6.40;99.90;;;;;;5059995;28;20022;-82
2023/01/09 09:32:41;;;;;;;11.02;6.80;;;6.50;99.90;;;;;;5058919;28;20019;-82
2023/01/09 09:35:07;;;;;;;14.43;8.60;;;6.60;99.90;;;;;;5059670;28;20019;-82
2023/01/09 09:37:33;;;;;;;9.15;6.60;;;6.60;99.90;;;;;;4991354;28;20024;-81
2023/01/09 09:39:59;;;;;;;10.18;6.05;;;6.70;99.90;;;;;;5057796;28;20025;-79
2023/01/09 09:45:48;;;;;;;8.15;6.13;;;6.80;99.90;;;;;;4990556;28;20578;-78
2023/01/09 09:48:26;;;;;;;8.82;5.50;;;6.90;99.90;;;;;;5057688;28;20033;-78
2023/01/09 09:51:10;;;;;;;9.23;6.35;;;7.00;99.90;;;;;;5057596;28;20060;-82
2023/01/09 09:53:48;;;;;;;8.88;5.97;;;7.00;99.90;;;;;;5056945;28;20121;-82
2023/01/09 09:56:17;;;;;;;6.75;5.53;;;7.10;99.90;;;;;;4990417;28;20040;-82
2023/01/09 09:58:49;;;;;;;9.77;5.53;;;7.20;99.90;;;;;;4990199;28;20559;-82
2023/01/09 10:01:20;;;;;;;10.18;5.85;;;7.20;99.90;;;;;;5057233;28;20019;-82
2023/01/09 10:03:50;;;;;;;8.23;5.80;;;7.30;99.90;;;;;;4992332;28;20037;-78
2023/01/09 10:06:25;;;;;;;8.63;5.90;;;7.30;99.90;;;;;;5059253;28;20031;-82
2023/01/09 10:09:01;;;;;;;8.45;5.63;;;7.40;99.90;;;;;;4992223;28;20468;-80
2023/01/09 10:11:57;;;;;;;9.20;5.30;;;7.50;99.90;;;;;;4992325;28;20062;-78
2023/01/09 10:14:22;;;;;;;7.85;5.72;;;7.50;99.90;;;;;;5059340;28;20064;-82
2023/01/09 10:16:51;;;;;;;7.10;5.47;;;7.50;99.90;;;;;;4991974;28;20026;-82
2023/01/09 10:19:35;;;;;;;8.02;5.90;;;7.50;99.90;;;;;;4991923;28;20068;-79
2023/01/09 10:22:33;;;;;;;12.75;9.40;;;7.60;99.90;;;;;;5059269;28;20572;-82
2023/01/09 10:25:20;;;;;;;10.30;6.00;;;7.60;99.90;;;;;;4992399;28;20062;-82
2023/01/09 10:28:10;;;;;;;14.48;7.97;;;7.60;99.90;;;;;;4991927;28;20935;-78
2023/01/09 10:30:47;;;;;;;14.00;9.40;;;7.60;99.90;;;;;;4991833;28;20029;-82
2023/01/09 10:33:15;;;;;;;13.57;9.32;;;7.60;99.90;;;;;;4991804;28;20026;-82
2023/01/09 10:35:50;;;;;;;20.40;12.85;;;7.60;99.90;;;;;;5058839;28;20023;-82
2023/01/09 10:38:27;;;;;;;20.42;12.30;;;7.60;99.90;;;;;;4991816;28;20468;-78
2023/01/09 10:40:58;;;;;;;22.45;12.88;;;7.60;99.90;;;;;;4991753;28;20105;-77
2023/01/09 10:43:45;;;;;;;23.75;13.68;;;7.50;99.90;;;;;;4992047;28;20117;-78
2023/01/09 10:46:18;;;;;;;19.98;13.27;;;7.50;99.90;;;;;;4991651;28;20120;-81
2023/01/09 10:48:49;;;;;;;17.63;12.05;;;7.50;99.90;;;;;;5058611;28;20491;-81
2023/01/09 10:51:21;;;;;;;26.73;18.23;;;7.50;99.90;;;;;;5058789;28;20033;-81
2023/01/09 10:53:52;;;;;;;22.88;14.73;;;7.40;99.90;;;;;;5058751;28;20022;-82
2023/01/09 10:56:32;;;;;;;24.40;13.57;;;7.40;99.90;;;;;;4991472;28;20357;-81
2023/01/09 10:58:58;;;;;;;27.73;13.73;;;7.30;99.90;;;;;;5058639;28;20030;-78
2023/01/09 11:01:33;;;;;;;21.15;12.52;;;7.40;99.90;;;;;;5058471;28;20028;-78
2023/01/09 11:04:00;;;;;;;18.98;11.23;;;7.40;99.90;;;;;;5058568;28;20026;-81
2023/01/09 11:06:48;;;;;;;20.10;11.05;;;7.40;99.90;;;;;;4990132;28;20080;-78
2023/01/09 11:09:15;;;;;;;23.30;13.07;;;7.40;99.90;;;;;;4991396;28;20076;-78
2023/01/09 11:11:41;;;;;;;19.95;11.05;;;7.30;99.90;;;;;;4991187;28;20063;-78
2023/01/09 11:14:30;;;;;;;24.35;13.88;;;7.30;99.90;;;;;;5058204;28;20118;-81
2023/01/09 11:17:02;;;;;;;31.60;18.48;;;7.30;99.90;;;;;;5058420;28;20029;-79
2023/01/09 11:19:29;;;;;;;29.10;18.40;;;7.30;99.90;;;;;;4991193;28;20367;-81
2023/01/09 11:22:28;;;;;;;24.05;17.05;;;7.30;99.90;;;;;;4991113;28;20054;-81
2023/01/09 11:25:04;;;;;;;77.72;43.35;;;7.30;99.90;;;;;;5014764;28;20038;-77
2023/01/09 11:27:30;;;;;;;101.57;55.92;;;7.30;99.90;;;;;;4991118;28;20022;-81
2023/01/09 11:30:15;;;;;;;119.25;62.78;;;7.30;99.90;;;;;;5057910;28;20029;-81
2023/01/09 11:32:42;;;;;;;70.18;40.88;;;7.30;99.90;;;;;;4991040;28;20429;-78
2023/01/09 11:35:31;;;;;;;63.95;37.20;;;7.30;99.90;;;;;;5058216;28;20434;-79
2023/01/09 11:38:03;;;;;;;48.63;28.17;;;7.30;99.90;;;;;;5058300;28;20026;-80
2023/01/09 11:40:34;;;;;;;40.97;24.58;;;7.30;99.90;;;;;;5058107;28;20400;-81
2023/01/09 11:43:04;;;;;;;37.38;21.75;;;7.40;99.90;;;;;;5058061;28;20113;-81
2023/01/09 11:45:33;;;;;;;16.92;11.13;;;7.40;99.90;;;;;;4990970;28;20034;-81
2023/01/09 11:48:00;;;;;;;19.65;13.23;;;7.40;99.90;;;;;;4990826;28;20023;-80
2023/01/09 11:50:27;;;;;;;23.50;14.70;;;7.40;99.90;;;;;;5058162;28;20072;-78
2023/01/09 11:53:17;;;;;;;14.60;10.20;;;7.50;99.90;;;;;;5057876;28;20031;-77
2023/01/09 11:55:45;;;;;;;35.00;21.27;;;7.40;99.90;;;;;;5057956;28;20045;-80
2023/01/09 11:58:13;;;;;;;23.95;14.85;;;7.40;99.90;;;;;;4990673;28;20079;-80
2023/01/09 12:01:07;;;;;;;32.97;20.15;;;7.40;99.90;;;;;;5057921;28;20026;-78
2023/01/09 12:03:35;;;;;;;;;;;7.40;99.90;;;;;;5058363;28;20464;-77
2023/01/09 12:06:26;;;;;;;19.83;13.32;;;7.40;99.90;;;;;;5057766;28;19913;-78
2023/01/09 12:09:02;;;;;;;14.60;8.55;;;7.30;99.90;;;;;;5058002;28;20488;-77
2023/01/09 12:11:34;;;;;;;18.63;12.05;;;7.30;99.90;;;;;;4990819;28;20466;-77
2023/01/09 12:14:18;;;;;;;18.42;12.35;;;7.30;99.90;;;;;;4990544;28;20511;-81
2023/01/09 12:16:44;;;;;;;21.48;14.25;;;7.30;99.90;;;;;;5057897;28;20484;-80
2023/01/09 12:19:41;;;;;;;23.30;14.80;;;7.20;99.90;;;;;;4993779;28;20031;-81
2023/01/09 12:22:21;;;;;;;27.35;17.52;;;7.20;99.90;;;;;;5060638;28;20026;-77
2023/01/09 12:25:07;;;;;;;25.15;17.38;;;7.20;99.90;;;;;;4993139;28;20022;-81
2023/01/09 12:27:51;;;;;;;20.40;15.00;;;7.20;99.90;;;;;;4993789;28;20593;-77
2023/01/09 12:30:52;;;;;;;27.70;17.52;;;7.20;99.90;;;;;;5060973;28;20030;-81
2023/01/09 12:33:32;;;;;;;48.42;26.52;;;7.20;99.90;;;;;;4996747;28;20029;-78
2023/01/09 12:36:27;;;;;;;50.22;27.50;;;7.10;99.90;;;;;;5052223;28;20046;-81
2023/01/09 12:39:21;;;;;;;48.97;26.80;;;7.10;99.90;;;;;;4993640;28;20031;-78
2023/01/09 12:42:08;;;;;;;38.22;20.83;;;7.10;99.90;;;;;;5061089;28;20113;-81
2023/01/09 12:45:06;;;;;;;41.70;22.08;;;7.10;99.90;;;;;;4993638;28;20076;-81
2023/01/09 12:47:45;;;;;;;37.78;21.80;;;7.10;99.90;;;;;;4993412;28;20472;-81
2023/01/09 12:50:32;;;;;;;40.85;20.95;;;7.00;99.90;;;;;;4993604;28;20026;-78
2023/01/09 12:53:22;;;;;;;31.77;19.73;;;7.00;99.90;;;;;;5060912;28;20026;-81
2023/01/09 12:56:46;;;;;;;23.55;14.70;;;7.00;99.90;;;;;;5060820;28;20034;-78
2023/01/09 12:59:36;;;;;;;24.38;14.40;;;7.00;99.90;;;;;;5013949;28;20033;-78
2023/01/09 13:02:11;;;;;;;18.95;12.30;;;7.00;99.90;;;;;;5013846;28;20030;-78
2023/01/09 13:05:06;;;;;;;19.48;11.68;;;6.90;99.90;;;;;;4999532;28;20373;-77
2023/01/09 13:07:39;;;;;;;17.10;11.35;;;6.90;99.90;;;;;;5030069;28;20132;-78
2023/01/09 13:10:17;;;;;;;;;;;6.90;99.90;;;;;;4993483;28;20031;-78